sensor_id;sensor_type;location;lat;lon;timestamp;pressure;altitude;pressure_sealevel;temperature;humidity
29733;BME280;16643;43.158;25.302;2023-04-25T00:02:10;97262.56;;;13.27;100.00
29733;BME280;16643;43.158;25.302;2023-04-25T00:04:36;97232.03;;;13.12;100.00
29733;BME280;16643;43.158;25.302;2023-04-25T00:07:03;97254.13;;;13.22;100.00
29733;BME280;16643;43.158;25.302;2023-04-25T00:09:29;97237.63;;;13.21;100.00
29733;BME280;16643;43.158;25.302;2023-04-25T00:11:55;97234.03;;;13.24;100.00
29733;BME280;16643;43.158;25.302;2023-04-25T00:14:21;97230.66;;;13.22;100.00
29733;BME280;16643;43.158;25.302;2023-04-25T00:16:46;97230.66;;;-142.82;100.00
29733;BME280;16643;43.158;25.302;2023-04-25T00:19:13;97231.16;;;13.28;100.00
29733;BME280;16643;43.158;25.302;2023-04-25T00:21:39;97235.97;;;13.20;100.00
29733;BME280;16643;43.158;25.302;2023-04-25T00:24:07;97235.78;;;13.23;100.00
29733;BME280;16643;43.158;25.302;2023-04-25T00:26:34;97219.84;;;13.12;100.00
29733;BME280;16643;43.158;25.302;2023-04-25T00:29:01;97228.25;;;12.86;100.00
29733;BME280;16643;43.158;25.302;2023-04-25T00:31:26;97208.13;;;12.72;100.00
29733;BME280;16643;43.158;25.302;2023-04-25T00:33:52;97182.44;;;12.49;100.00
29733;BME280;16643;43.158;25.302;2023-04-25T00:36:18;97193.63;;;12.51;100.00
29733;BME280;16643;43.158;25.302;2023-04-25T00:38:44;97200.38;;;12.70;100.00
29733;BME280;16643;43.158;25.302;2023-04-25T00:41:10;97200.22;;;12.73;100.00
29733;BME280;16643;43.158;25.302;2023-04-25T00:43:36;97200.47;;;12.69;100.00
29733;BME280;16643;43.158;25.302;2023-04-25T00:46:03;97187.59;;;12.66;100.00
29733;BME280;16643;43.158;25.302;2023-04-25T00:48:28;97163.44;;;12.47;100.00
29733;BME280;16643;43.158;25.302;2023-04-25T00:50:57;97184.66;;;12.72;100.00
29733;BME280;16643;43.158;25.302;2023-04-25T00:53:24;97178.69;;;12.70;100.00
29733;BME280;16643;43.158;25.302;2023-04-25T00:55:51;97188.50;;;12.65;100.00
29733;BME280;16643;43.158;25.302;2023-04-25T00:58:17;97180.78;;;12.79;100.00
29733;BME280;16643;43.158;25.302;2023-04-25T01:00:45;97165.22;;;12.62;100.00
29733;BME280;16643;43.158;25.302;2023-04-25T01:03:15;97166.47;;;12.55;100.00
29733;BME280;16643;43.158;25.302;2023-04-25T01:05:46;97149.31;;;12.51;100.00
29733;BME280;16643;43.158;25.302;2023-04-25T01:08:13;97173.81;;;12.64;100.00
29733;BME280;16643;43.158;25.302;2023-04-25T01:10:39;97177.56;;;12.58;100.00
29733;BME280;16643;43.158;25.302;2023-04-25T01:13:05;97152.66;;;12.53;100.00
29733;BME280;16643;43.158;25.302;2023-04-25T01:15:31;97152.66;;;-142.82;100.00
29733;BME280;16643;43.158;25.302;2023-04-25T01:17:58;97138.72;;;12.38;100.00
29733;BME280;16643;43.158;25.302;2023-04-25T01:20:26;97142.75;;;12.59;100.00
29733;BME280;16643;43.158;25.302;2023-04-25T01:22:54;97144.78;;;12.70;100.00
29733;BME280;16643;43.158;25.302;2023-04-25T01:25:22;97139.91;;;12.64;100.00
29733;BME280;16643;43.158;25.302;2023-04-25T01:27:48;97136.88;;;12.56;100.00
29733;BME280;16643;43.158;25.302;2023-04-25T01:30:14;97134.34;;;12.54;100.00
29733;BME280;16643;43.158;25.302;2023-04-25T01:32:40;97130.50;;;12.61;100.00
29733;BME280;16643;43.158;25.302;2023-04-25T01:35:11;97123.00;;;12.55;100.00
29733;BME280;16643;43.158;25.302;2023-04-25T01:37:38;97128.97;;;12.57;100.00
29733;BME280;16643;43.158;25.302;2023-04-25T01:40:04;97123.34;;;12.49;100.00
29733;BME280;16643;43.158;25.302;2023-04-25T01:42:32;97107.75;;;12.32;100.00
29733;BME280;16643;43.158;25.302;2023-04-25T01:44:57;97084.44;;;12.13;100.00
29733;BME280;16643;43.158;25.302;2023-04-25T01:47:23;97064.97;;;11.87;100.00
29733;BME280;16643;43.158;25.302;2023-04-25T01:49:49;97071.59;;;11.77;100.00
29733;BME280;16643;43.158;25.302;2023-04-25T01:52:14;97077.38;;;11.65;100.00
29733;BME280;16643;43.158;25.302;2023-04-25T01:54:40;97077.38;;;-142.82;100.00
29733;BME280;16643;43.158;25.302;2023-04-25T01:57:12;97076.72;;;11.61;100.00
29733;BME280;16643;43.158;25.302;2023-04-25T01:59:38;97089.75;;;11.61;100.00
29733;BME280;16643;43.158;25.302;2023-04-25T02:02:03;97034.41;;;11.41;100.00
29733;BME280;16643;43.158;25.302;2023-04-25T02:04:30;97083.22;;;11.70;100.00
29733;BME280;16643;43.158;25.302;2023-04-25T02:06:55;97086.88;;;11.66;100.00
29733;BME280;16643;43.158;25.302;2023-04-25T02:09:21;97077.25;;;11.68;100.00
29733;BME280;16643;43.158;25.302;2023-04-25T02:11:47;97066.50;;;11.74;100.00
29733;BME280;16643;43.158;25.302;2023-04-25T02:14:13;97079.09;;;11.83;100.00
29733;BME280;16643;43.158;25.302;2023-04-25T02:16:39;97059.34;;;11.79;100.00
29733;BME280;16643;43.158;25.302;2023-04-25T02:19:05;97065.88;;;11.86;100.00
29733;BME280;16643;43.158;25.302;2023-04-25T02:21:31;97079.72;;;12.04;100.00
29733;BME280;16643;43.158;25.302;2023-04-25T02:23:57;97068.34;;;11.89;100.00
29733;BME280;16643;43.158;25.302;2023-04-25T02:26:23;97077.13;;;12.04;100.00
29733;BME280;16643;43.158;25.302;2023-04-25T02:28:52;97065.50;;;11.94;100.00
29733;BME280;16643;43.158;25.302;2023-04-25T02:31:17;97083.56;;;11.97;100.00
29733;BME280;16643;43.158;25.302;2023-04-25T02:33:43;97087.63;;;12.03;100.00
29733;BME280;16643;43.158;25.302;2023-04-25T02:36:09;97086.94;;;11.99;100.00
29733;BME280;16643;43.158;25.302;2023-04-25T02:38:35;97041.47;;;11.89;100.00
29733;BME280;16643;43.158;25.302;2023-04-25T02:41:00;97041.47;;;-142.82;100.00
29733;BME280;16643;43.158;25.302;2023-04-25T02:43:26;97029.75;;;11.47;100.00
29733;BME280;16643;43.158;25.302;2023-04-25T02:45:52;97095.94;;;11.59;100.00
29733;BME280;16643;43.158;25.302;2023-04-25T02:48:18;97086.38;;;11.59;100.00
29733;BME280;16643;43.158;25.302;2023-04-25T02:50:44;97077.94;;;11.54;100.00
29733;BME280;16643;43.158;25.302;2023-04-25T02:53:10;97058.81;;;11.21;100.00
29733;BME280;16643;43.158;25.302;2023-04-25T02:55:36;97080.25;;;11.26;100.00
29733;BME280;16643;43.158;25.302;2023-04-25T02:58:01;97043.59;;;10.96;100.00
29733;BME280;16643;43.158;25.302;2023-04-25T03:00:27;97070.59;;;10.94;100.00
29733;BME280;16643;43.158;25.302;2023-04-25T03:02:53;97072.28;;;10.95;100.00
29733;BME280;16643;43.158;25.302;2023-04-25T03:05:18;88677.34;;;-142.82;100.00
29733;BME280;16643;43.158;25.302;2023-04-25T03:07:44;97079.97;;;10.96;100.00
29733;BME280;16643;43.158;25.302;2023-04-25T03:10:11;97082.53;;;11.15;100.00
29733;BME280;16643;43.158;25.302;2023-04-25T03:12:37;97091.88;;;11.19;100.00
29733;BME280;16643;43.158;25.302;2023-04-25T03:15:03;97044.91;;;11.05;100.00
29733;BME280;16643;43.158;25.302;2023-04-25T03:17:29;97097.78;;;11.40;100.00
29733;BME280;16643;43.158;25.302;2023-04-25T03:19:55;97097.06;;;11.53;100.00
29733;BME280;16643;43.158;25.302;2023-04-25T03:22:21;97096.84;;;11.58;100.00
29733;BME280;16643;43.158;25.302;2023-04-25T03:24:47;97094.00;;;11.62;100.00
29733;BME280;16643;43.158;25.302;2023-04-25T03:27:13;97073.34;;;11.59;100.00
29733;BME280;16643;43.158;25.302;2023-04-25T03:29:38;97095.13;;;11.74;100.00
29733;BME280;16643;43.158;25.302;2023-04-25T03:32:05;97101.59;;;11.84;100.00
29733;BME280;16643;43.158;25.302;2023-04-25T03:34:31;97089.72;;;11.79;100.00
29733;BME280;16643;43.158;25.302;2023-04-25T03:36:57;97080.25;;;11.78;100.00
29733;BME280;16643;43.158;25.302;2023-04-25T03:39:22;97084.69;;;11.76;100.00
29733;BME280;16643;43.158;25.302;2023-04-25T03:41:48;97095.13;;;11.74;100.00
29733;BME280;16643;43.158;25.302;2023-04-25T03:44:14;97063.78;;;11.60;100.00
29733;BME280;16643;43.158;25.302;2023-04-25T03:46:39;97061.09;;;11.61;100.00
29733;BME280;16643;43.158;25.302;2023-04-25T03:49:05;97081.38;;;11.72;100.00
29733;BME280;16643;43.158;25.302;2023-04-25T03:51:31;97090.19;;;11.70;100.00
29733;BME280;16643;43.158;25.302;2023-04-25T03:53:56;97088.16;;;11.75;100.00
29733;BME280;16643;43.158;25.302;2023-04-25T03:56:22;97043.25;;;11.54;100.00
29733;BME280;16643;43.158;25.302;2023-04-25T03:58:48;97068.38;;;11.72;100.00
29733;BME280;16643;43.158;25.302;2023-04-25T04:01:13;97058.88;;;11.71;100.00
29733;BME280;16643;43.158;25.302;2023-04-25T04:03:39;97068.44;;;11.71;100.00
29733;BME280;16643;43.158;25.302;2023-04-25T04:06:06;97059.34;;;11.79;100.00
29733;BME280;16643;43.158;25.302;2023-04-25T04:08:32;97063.91;;;11.91;100.00
29733;BME280;16643;43.158;25.302;2023-04-25T04:10:59;97072.91;;;12.02;100.00
29733;BME280;16643;43.158;25.302;2023-04-25T04:13:28;97078.72;;;12.07;100.00
29733;BME280;16643;43.158;25.302;2023-04-25T04:15:54;97077.63;;;11.95;100.00
29733;BME280;16643;43.158;25.302;2023-04-25T04:18:21;97086.63;;;12.05;100.00
29733;BME280;16643;43.158;25.302;2023-04-25T04:20:47;97085.00;;;12.03;100.00
29733;BME280;16643;43.158;25.302;2023-04-25T04:23:13;97082.63;;;11.98;100.00
29733;BME280;16643;43.158;25.302;2023-04-25T04:25:38;97093.94;;;12.14;100.00
29733;BME280;16643;43.158;25.302;2023-04-25T04:28:05;97098.31;;;12.14;100.00
29733;BME280;16643;43.158;25.302;2023-04-25T04:30:31;97071.25;;;12.16;100.00
29733;BME280;16643;43.158;25.302;2023-04-25T04:32:58;97061.59;;;12.18;100.00
29733;BME280;16643;43.158;25.302;2023-04-25T04:35:24;97069.00;;;12.26;100.00
29733;BME280;16643;43.158;25.302;2023-04-25T04:37:50;97078.44;;;12.28;100.00
29733;BME280;16643;43.158;25.302;2023-04-25T04:40:17;97078.34;;;12.46;100.00
29733;BME280;16643;43.158;25.302;2023-04-25T04:42:46;97052.78;;;12.36;100.00
29733;BME280;16643;43.158;25.302;2023-04-25T04:45:12;97088.03;;;12.59;100.00
29733;BME280;16643;43.158;25.302;2023-04-25T04:47:40;97065.16;;;12.49;100.00
29733;BME280;16643;43.158;25.302;2023-04-25T04:50:07;97077.59;;;12.59;100.00
29733;BME280;16643;43.158;25.302;2023-04-25T04:52:38;97082.03;;;12.57;100.00
29733;BME280;16643;43.158;25.302;2023-04-25T04:55:04;97063.38;;;12.49;100.00
29733;BME280;16643;43.158;25.302;2023-04-25T04:57:31;97063.38;;;-142.82;100.00
29733;BME280;16643;43.158;25.302;2023-04-25T04:59:58;97071.28;;;12.63;100.00
29733;BME280;16643;43.158;25.302;2023-04-25T05:02:24;97070.69;;;12.74;100.00
29733;BME280;16643;43.158;25.302;2023-04-25T05:04:49;97082.91;;;12.73;100.00
29733;BME280;16643;43.158;25.302;2023-04-25T05:07:17;97083.97;;;12.85;100.00
29733;BME280;16643;43.158;25.302;2023-04-25T05:09:43;97082.00;;;12.89;100.00
29733;BME280;16643;43.158;25.302;2023-04-25T05:12:08;97067.81;;;12.79;100.00
29733;BME280;16643;43.158;25.302;2023-04-25T05:14:34;97071.19;;;12.81;100.00
29733;BME280;16643;43.158;25.302;2023-04-25T05:17:03;97036.22;;;12.69;100.00
29733;BME280;16643;43.158;25.302;2023-04-25T05:19:30;97076.56;;;12.93;100.00
29733;BME280;16643;43.158;25.302;2023-04-25T05:21:56;97076.56;;;12.93;100.00
29733;BME280;16643;43.158;25.302;2023-04-25T05:24:24;97094.38;;;13.01;100.00
29733;BME280;16643;43.158;25.302;2023-04-25T05:26:50;97092.22;;;12.93;100.00
29733;BME280;16643;43.158;25.302;2023-04-25T05:29:16;97040.28;;;12.89;100.00
29733;BME280;16643;43.158;25.302;2023-04-25T05:31:41;97094.28;;;13.02;100.00
29733;BME280;16643;43.158;25.302;2023-04-25T05:34:07;97094.28;;;-142.82;100.00
29733;BME280;16643;43.158;25.302;2023-04-25T05:36:32;97079.03;;;13.10;100.00
29733;BME280;16643;43.158;25.302;2023-04-25T05:38:58;97084.03;;;12.99;100.00
29733;BME280;16643;43.158;25.302;2023-04-25T05:41:24;97058.84;;;12.98;100.00
29733;BME280;16643;43.158;25.302;2023-04-25T05:43:49;97086.50;;;13.32;100.00
29733;BME280;16643;43.158;25.302;2023-04-25T05:46:15;97081.00;;;13.53;100.00
29733;BME280;16643;43.158;25.302;2023-04-25T05:48:42;97099.38;;;13.79;100.00
29733;BME280;16643;43.158;25.302;2023-04-25T05:51:08;97098.53;;;13.79;100.00
29733;BME280;16643;43.158;25.302;2023-04-25T05:53:34;97064.47;;;13.66;100.00
29733;BME280;16643;43.158;25.302;2023-04-25T05:56:00;97091.25;;;13.70;100.00
29733;BME280;16643;43.158;25.302;2023-04-25T05:58:25;97103.50;;;13.84;100.00
29733;BME280;16643;43.158;25.302;2023-04-25T06:00:51;97088.94;;;13.79;100.00
29733;BME280;16643;43.158;25.302;2023-04-25T06:03:17;97075.69;;;13.68;100.00
29733;BME280;16643;43.158;25.302;2023-04-25T06:05:42;97081.78;;;13.83;100.00
29733;BME280;16643;43.158;25.302;2023-04-25T06:08:09;97091.13;;;14.15;100.00
29733;BME280;16643;43.158;25.302;2023-04-25T06:10:36;97023.16;;;14.15;100.00
29733;BME280;16643;43.158;25.302;2023-04-25T06:13:02;97079.59;;;14.61;100.00
29733;BME280;16643;43.158;25.302;2023-04-25T06:15:27;73220.91;;;-142.82;100.00
29733;BME280;16643;43.158;25.302;2023-04-25T06:17:53;97096.81;;;14.92;100.00
29733;BME280;16643;43.158;25.302;2023-04-25T06:20:19;97118.59;;;14.92;100.00
29733;BME280;16643;43.158;25.302;2023-04-25T06:22:48;97074.91;;;15.07;100.00
29733;BME280;16643;43.158;25.302;2023-04-25T06:25:15;97100.81;;;15.24;100.00
29733;BME280;16643;43.158;25.302;2023-04-25T06:27:40;97091.25;;;15.10;100.00
29733;BME280;16643;43.158;25.302;2023-04-25T06:30:06;97090.31;;;15.24;100.00
29733;BME280;16643;43.158;25.302;2023-04-25T06:32:32;97052.84;;;15.36;100.00
29733;BME280;16643;43.158;25.302;2023-04-25T06:35:00;97096.25;;;16.05;100.00
29733;BME280;16643;43.158;25.302;2023-04-25T06:37:25;97102.13;;;16.34;100.00
29733;BME280;16643;43.158;25.302;2023-04-25T06:39:51;97099.03;;;16.53;100.00
29733;BME280;16643;43.158;25.302;2023-04-25T06:42:17;97106.47;;;16.72;97.33
29733;BME280;16643;43.158;25.302;2023-04-25T06:44:42;97101.88;;;16.99;92.37
29733;BME280;16643;43.158;25.302;2023-04-25T06:47:08;97098.72;;;17.18;92.92
29733;BME280;16643;43.158;25.302;2023-04-25T06:49:34;97088.78;;;17.34;93.33
29733;BME280;16643;43.158;25.302;2023-04-25T06:51:59;97110.72;;;17.81;95.24
29733;BME280;16643;43.158;25.302;2023-04-25T06:54:25;97124.75;;;18.03;91.38
29733;BME280;16643;43.158;25.302;2023-04-25T06:56:53;97112.81;;;18.10;85.33
29733;BME280;16643;43.158;25.302;2023-04-25T06:59:18;97109.81;;;18.04;85.43
29733;BME280;16643;43.158;25.302;2023-04-25T07:01:44;97115.44;;;18.22;89.65
29733;BME280;16643;43.158;25.302;2023-04-25T07:04:10;97115.41;;;17.99;85.49
29733;BME280;16643;43.158;25.302;2023-04-25T07:06:35;97072.84;;;17.48;76.47
29733;BME280;16643;43.158;25.302;2023-04-25T07:09:03;97115.44;;;17.64;75.95
29733;BME280;16643;43.158;25.302;2023-04-25T07:11:30;97115.16;;;17.56;75.67
29733;BME280;16643;43.158;25.302;2023-04-25T07:13:56;97122.19;;;17.56;77.16
29733;BME280;16643;43.158;25.302;2023-04-25T07:16:21;97102.47;;;17.61;81.57
29733;BME280;16643;43.158;25.302;2023-04-25T07:18:47;97112.06;;;17.62;80.92
29733;BME280;16643;43.158;25.302;2023-04-25T07:21:12;97112.38;;;17.70;79.79
29733;BME280;16643;43.158;25.302;2023-04-25T07:23:38;97121.72;;;17.62;79.06
29733;BME280;16643;43.158;25.302;2023-04-25T07:26:06;97112.75;;;17.53;80.13
29733;BME280;16643;43.158;25.302;2023-04-25T07:28:32;97107.13;;;17.47;80.40
29733;BME280;16643;43.158;25.302;2023-04-25T07:30:57;97113.25;;;17.58;82.17
29733;BME280;16643;43.158;25.302;2023-04-25T07:33:23;97103.97;;;17.65;80.74
29733;BME280;16643;43.158;25.302;2023-04-25T07:35:49;97120.50;;;17.78;79.47
29733;BME280;16643;43.158;25.302;2023-04-25T07:38:15;97121.84;;;17.95;77.85
29733;BME280;16643;43.158;25.302;2023-04-25T07:40:41;97130.50;;;18.20;77.90
29733;BME280;16643;43.158;25.302;2023-04-25T07:43:06;97120.13;;;18.40;80.45
29733;BME280;16643;43.158;25.302;2023-04-25T07:45:32;97116.19;;;18.57;75.11
29733;BME280;16643;43.158;25.302;2023-04-25T07:47:57;97100.75;;;18.75;80.53
29733;BME280;16643;43.158;25.302;2023-04-25T07:50:23;97106.38;;;18.81;80.50
29733;BME280;16643;43.158;25.302;2023-04-25T07:52:49;97114.50;;;18.34;83.60
29733;BME280;16643;43.158;25.302;2023-04-25T07:55:14;97109.38;;;18.66;83.83
29733;BME280;16643;43.158;25.302;2023-04-25T07:57:40;97109.25;;;18.67;84.42
29733;BME280;16643;43.158;25.302;2023-04-25T08:00:06;97101.31;;;19.01;88.87
29733;BME280;16643;43.158;25.302;2023-04-25T08:02:37;97105.78;;;18.78;83.27
29733;BME280;16643;43.158;25.302;2023-04-25T08:05:03;97084.00;;;18.42;88.54
29733;BME280;16643;43.158;25.302;2023-04-25T08:07:29;97101.22;;;18.80;93.47
29733;BME280;16643;43.158;25.302;2023-04-25T08:09:54;97069.84;;;19.20;85.69
29733;BME280;16643;43.158;25.302;2023-04-25T08:12:20;97090.28;;;19.50;82.82
29733;BME280;16643;43.158;25.302;2023-04-25T08:14:46;97091.66;;;19.54;87.57
29733;BME280;16643;43.158;25.302;2023-04-25T08:17:11;97120.13;;;19.71;87.01
29733;BME280;16643;43.158;25.302;2023-04-25T08:19:37;97083.78;;;19.43;82.76
29733;BME280;16643;43.158;25.302;2023-04-25T08:22:03;97116.16;;;19.02;87.46
29733;BME280;16643;43.158;25.302;2023-04-25T08:24:28;97112.88;;;19.09;86.21
29733;BME280;16643;43.158;25.302;2023-04-25T08:26:54;97098.47;;;18.48;85.46
29733;BME280;16643;43.158;25.302;2023-04-25T08:29:20;97102.19;;;18.45;87.83
29733;BME280;16643;43.158;25.302;2023-04-25T08:31:45;97096.81;;;18.36;83.31
29733;BME280;16643;43.158;25.302;2023-04-25T08:34:11;97090.81;;;18.34;81.32
29733;BME280;16643;43.158;25.302;2023-04-25T08:36:36;97100.84;;;18.18;79.01
29733;BME280;16643;43.158;25.302;2023-04-25T08:39:02;97103.97;;;18.11;78.29
29733;BME280;16643;43.158;25.302;2023-04-25T08:41:28;97099.06;;;18.18;77.13
29733;BME280;16643;43.158;25.302;2023-04-25T08:43:56;97110.41;;;18.41;78.59
29733;BME280;16643;43.158;25.302;2023-04-25T08:46:23;97117.97;;;18.23;79.47
29733;BME280;16643;43.158;25.302;2023-04-25T08:48:49;97114.00;;;18.51;79.96
29733;BME280;16643;43.158;25.302;2023-04-25T08:51:22;97113.22;;;18.62;78.94
29733;BME280;16643;43.158;25.302;2023-04-25T08:53:53;97114.31;;;19.13;77.61
29733;BME280;16643;43.158;25.302;2023-04-25T08:56:19;97105.34;;;19.16;73.80
29733;BME280;16643;43.158;25.302;2023-04-25T08:58:48;97101.81;;;18.95;73.65
29733;BME280;16643;43.158;25.302;2023-04-25T09:01:15;97102.63;;;19.06;75.28
29733;BME280;16643;43.158;25.302;2023-04-25T09:03:41;97093.16;;;19.04;72.85
29733;BME280;16643;43.158;25.302;2023-04-25T09:06:07;97114.84;;;18.51;74.25
29733;BME280;16643;43.158;25.302;2023-04-25T09:08:33;97121.22;;;18.38;75.94
29733;BME280;16643;43.158;25.302;2023-04-25T09:11:00;97156.00;;;17.84;85.99
29733;BME280;16643;43.158;25.302;2023-04-25T09:13:27;97180.31;;;17.03;95.87
29733;BME280;16643;43.158;25.302;2023-04-25T09:15:54;97169.44;;;16.08;97.13
29733;BME280;16643;43.158;25.302;2023-04-25T09:18:28;97139.16;;;14.13;100.00
29733;BME280;16643;43.158;25.302;2023-04-25T09:21:05;97144.19;;;14.02;100.00
29733;BME280;16643;43.158;25.302;2023-04-25T09:43:25;97124.16;;;14.02;100.00
29733;BME280;16643;43.158;25.302;2023-04-25T09:45:54;97113.03;;;14.13;100.00
29733;BME280;16643;43.158;25.302;2023-04-25T09:48:24;97121.63;;;14.15;100.00
29733;BME280;16643;43.158;25.302;2023-04-25T09:53:40;97124.53;;;14.25;100.00
29733;BME280;16643;43.158;25.302;2023-04-25T09:56:09;97126.03;;;14.29;100.00
29733;BME280;16643;43.158;25.302;2023-04-25T09:58:36;97119.97;;;14.28;100.00
29733;BME280;16643;43.158;25.302;2023-04-25T10:01:07;97125.59;;;14.50;100.00
29733;BME280;16643;43.158;25.302;2023-04-25T10:03:37;97119.97;;;14.57;100.00
29733;BME280;16643;43.158;25.302;2023-04-25T10:06:08;97121.47;;;14.61;100.00
29733;BME280;16643;43.158;25.302;2023-04-25T10:08:36;97108.09;;;14.65;100.00
29733;BME280;16643;43.158;25.302;2023-04-25T10:11:05;97103.50;;;14.69;100.00
29733;BME280;16643;43.158;25.302;2023-04-25T10:13:33;97117.41;;;14.83;100.00
29733;BME280;16643;43.158;25.302;2023-04-25T10:16:01;97110.53;;;14.95;100.00
29733;BME280;16643;43.158;25.302;2023-04-25T10:18:28;97095.97;;;14.91;100.00
29733;BME280;16643;43.158;25.302;2023-04-25T10:20:56;97107.34;;;15.04;100.00
29733;BME280;16643;43.158;25.302;2023-04-25T10:23:23;97078.19;;;15.23;100.00
29733;BME280;16643;43.158;25.302;2023-04-25T10:25:50;97097.66;;;15.58;100.00
29733;BME280;16643;43.158;25.302;2023-04-25T10:28:17;97090.91;;;15.69;100.00
29733;BME280;16643;43.158;25.302;2023-04-25T10:30:59;97090.19;;;15.79;100.00
29733;BME280;16643;43.158;25.302;2023-04-25T10:33:39;97076.84;;;15.95;100.00
29733;BME280;16643;43.158;25.302;2023-04-25T10:36:24;97079.38;;;16.09;100.00
29733;BME280;16643;43.158;25.302;2023-04-25T10:38:52;97075.25;;;16.30;100.00
29733;BME280;16643;43.158;25.302;2023-04-25T10:41:19;97064.00;;;16.41;100.00
29733;BME280;16643;43.158;25.302;2023-04-25T10:43:46;97075.00;;;16.59;93.27
29733;BME280;16643;43.158;25.302;2023-04-25T10:46:26;97079.97;;;16.87;96.38
29733;BME280;16643;43.158;25.302;2023-04-25T10:48:54;97081.28;;;17.17;100.00
29733;BME280;16643;43.158;25.302;2023-04-25T10:51:33;97065.75;;;17.72;100.00
29733;BME280;16643;43.158;25.302;2023-04-25T10:56:27;97087.41;;;17.76;99.60
29733;BME280;16643;43.158;25.302;2023-04-25T10:59:19;97092.75;;;17.74;100.00
29733;BME280;16643;43.158;25.302;2023-04-25T11:01:47;97063.31;;;17.23;100.00
29733;BME280;16643;43.158;25.302;2023-04-25T11:09:28;97064.63;;;17.29;100.00
29733;BME280;16643;43.158;25.302;2023-04-25T11:11:55;97055.31;;;17.25;100.00
29733;BME280;16643;43.158;25.302;2023-04-25T11:14:21;97046.06;;;17.43;100.00
29733;BME280;16643;43.158;25.302;2023-04-25T11:16:47;97053.75;;;17.57;100.00
29733;BME280;16643;43.158;25.302;2023-04-25T11:19:13;97063.63;;;17.77;100.00
29733;BME280;16643;43.158;25.302;2023-04-25T11:21:39;97045.03;;;18.14;100.00
29733;BME280;16643;43.158;25.302;2023-04-25T11:24:04;97053.13;;;17.89;100.00
29733;BME280;16643;43.158;25.302;2023-04-25T11:26:30;97061.84;;;17.78;99.24
29733;BME280;16643;43.158;25.302;2023-04-25T11:28:59;97063.16;;;17.95;100.00
29733;BME280;16643;43.158;25.302;2023-04-25T11:31:29;97054.91;;;17.88;100.00
29733;BME280;16643;43.158;25.302;2023-04-25T11:33:57;97055.16;;;17.96;100.00
29733;BME280;16643;43.158;25.302;2023-04-25T11:36:23;97033.75;;;17.90;100.00
29733;BME280;16643;43.158;25.302;2023-04-25T11:38:53;97049.03;;;17.85;100.00
29733;BME280;16643;43.158;25.302;2023-04-25T11:41:19;97043.47;;;17.54;99.65
29733;BME280;16643;43.158;25.302;2023-04-25T11:43:45;97040.47;;;17.48;100.00
29733;BME280;16643;43.158;25.302;2023-04-25T11:46:11;97041.44;;;17.47;100.00
29733;BME280;16643;43.158;25.302;2023-04-25T11:48:40;97045.63;;;17.49;100.00
29733;BME280;16643;43.158;25.302;2023-04-25T11:51:06;97047.94;;;17.65;100.00
29733;BME280;16643;43.158;25.302;2023-04-25T11:53:32;97019.69;;;17.45;100.00
29733;BME280;16643;43.158;25.302;2023-04-25T11:55:58;97025.16;;;17.41;100.00
29733;BME280;16643;43.158;25.302;2023-04-25T11:58:24;97024.69;;;17.36;100.00
29733;BME280;16643;43.158;25.302;2023-04-25T12:00:50;97054.94;;;17.53;100.00
29733;BME280;16643;43.158;25.302;2023-04-25T12:03:17;97027.06;;;17.39;100.00
29733;BME280;16643;43.158;25.302;2023-04-25T12:05:45;97025.34;;;17.27;100.00
29733;BME280;16643;43.158;25.302;2023-04-25T12:08:15;97008.38;;;17.20;100.00
29733;BME280;16643;43.158;25.302;2023-04-25T12:10:43;97011.28;;;17.04;100.00
29733;BME280;16643;43.158;25.302;2023-04-25T12:13:25;97010.97;;;17.09;100.00
29733;BME280;16643;43.158;25.302;2023-04-25T12:15:54;97012.59;;;16.99;100.00
29733;BME280;16643;43.158;25.302;2023-04-25T12:18:20;97029.56;;;17.06;100.00
29733;BME280;16643;43.158;25.302;2023-04-25T12:20:47;97008.63;;;16.93;100.00
29733;BME280;16643;43.158;25.302;2023-04-25T12:23:12;97019.25;;;16.92;100.00
29733;BME280;16643;43.158;25.302;2023-04-25T12:25:40;97054.16;;;17.05;100.00
29733;BME280;16643;43.158;25.302;2023-04-25T12:28:24;97061.53;;;17.00;100.00
29733;BME280;16643;43.158;25.302;2023-04-25T12:31:00;97095.31;;;17.04;100.00
29733;BME280;16643;43.158;25.302;2023-04-25T12:33:36;97034.91;;;16.57;100.00
29733;BME280;16643;43.158;25.302;2023-04-25T12:36:04;97037.09;;;16.14;100.00
29733;BME280;16643;43.158;25.302;2023-04-25T12:38:41;97025.69;;;15.64;100.00
29733;BME280;16643;43.158;25.302;2023-04-25T12:41:08;97006.22;;;15.55;100.00
29733;BME280;16643;43.158;25.302;2023-04-25T13:06:33;96989.31;;;15.59;100.00
29733;BME280;16643;43.158;25.302;2023-04-25T13:08:59;96976.31;;;15.71;100.00
29733;BME280;16643;43.158;25.302;2023-04-25T13:11:25;96978.53;;;15.77;100.00
29733;BME280;16643;43.158;25.302;2023-04-25T13:13:51;96953.75;;;15.93;100.00
29733;BME280;16643;43.158;25.302;2023-04-25T13:16:16;96975.56;;;16.43;100.00
29733;BME280;16643;43.158;25.302;2023-04-25T13:18:42;96973.25;;;16.75;100.00
29733;BME280;16643;43.158;25.302;2023-04-25T13:21:09;97010.97;;;17.09;100.00
29733;BME280;16643;43.158;25.302;2023-04-25T13:23:36;96998.41;;;17.01;100.00
29733;BME280;16643;43.158;25.302;2023-04-25T13:26:01;97002.94;;;16.99;100.00
29733;BME280;16643;43.158;25.302;2023-04-25T13:28:27;96996.69;;;16.89;100.00
29733;BME280;16643;43.158;25.302;2023-04-25T13:30:53;97000.25;;;16.88;100.00
29733;BME280;16643;43.158;25.302;2023-04-25T13:33:20;97011.34;;;16.81;100.00
29733;BME280;16643;43.158;25.302;2023-04-25T13:35:47;97024.63;;;16.90;100.00